createdAt,value
2019-01-13T00:04:39.730Z,29.07
2019-01-13T00:07:20.361Z,27.80
2019-01-13T00:10:00.927Z,28.37
2019-01-13T00:12:42.088Z,22.23
2019-01-13T00:15:23.015Z,25.27
2019-01-13T00:18:03.914Z,27.03
2019-01-13T00:20:45.729Z,25.97
2019-01-13T00:23:27.231Z,24.03
2019-01-13T00:26:08.283Z,22.87
2019-01-13T00:28:49.154Z,25.37
2019-01-13T00:31:30.168Z,23.63
2019-01-13T00:34:10.975Z,23.43
2019-01-13T00:36:51.820Z,23.23
2019-01-13T00:39:32.413Z,21.07
2019-01-13T00:42:13.785Z,22.17
2019-01-13T00:44:54.426Z,23.53
2019-01-13T00:47:35.466Z,22.50
2019-01-13T00:50:16.304Z,21.30
2019-01-13T00:52:57.523Z,23.40
2019-01-13T00:55:38.004Z,23.13
2019-01-13T00:58:19.471Z,24.20
2019-01-13T01:01:00.872Z,23.03
2019-01-13T01:03:41.890Z,22.77
2019-01-13T01:06:23.507Z,22.73
2019-01-13T01:09:05.161Z,21.57
2019-01-13T01:11:46.888Z,21.73
2019-01-13T01:14:28.433Z,18.77
2019-01-13T01:17:09.736Z,23.50
2019-01-13T01:19:50.292Z,23.17
2019-01-13T01:22:31.637Z,23.80
2019-01-13T01:25:12.696Z,23.30
2019-01-13T01:27:54.131Z,20.47
2019-01-13T01:30:36.064Z,19.43
2019-01-13T01:33:25.716Z,23.70
2019-01-13T01:36:01.260Z,19.67
2019-01-13T01:38:42.335Z,21.27
2019-01-13T01:41:23.697Z,23.43
2019-01-13T01:44:04.603Z,18.00
2019-01-13T01:46:45.899Z,20.33
2019-01-13T01:49:26.823Z,22.03
2019-01-13T01:52:07.807Z,21.60
2019-01-13T01:54:49.849Z,22.03
2019-01-13T01:57:31.470Z,20.03
2019-01-13T02:00:13.424Z,20.33
2019-01-13T02:02:54.739Z,20.33
2019-01-13T02:05:35.926Z,20.67
2019-01-13T02:08:17.460Z,20.93
2019-01-13T02:10:57.127Z,22.87
2019-01-13T02:13:38.180Z,17.67
2019-01-13T02:16:19.972Z,19.93
2019-01-13T02:19:01.268Z,21.77
2019-01-13T02:21:42.927Z,21.57
2019-01-13T02:24:22.588Z,22.83
2019-01-13T02:27:03.544Z,22.37
2019-01-13T02:29:44.911Z,18.67
2019-01-13T02:32:26.339Z,17.87
2019-01-13T02:35:07.236Z,21.87
2019-01-13T02:37:47.749Z,19.07
2019-01-13T02:40:28.387Z,20.47
2019-01-13T02:43:09.377Z,21.77
2019-01-13T02:45:50.279Z,19.10
2019-01-13T02:48:31.606Z,17.80
2019-01-13T02:51:12.690Z,20.40
2019-01-13T02:53:54.425Z,19.47
2019-01-13T02:56:35.627Z,18.93
2019-01-13T02:59:16.460Z,19.13
2019-01-13T03:01:57.316Z,18.43
2019-01-13T03:04:37.956Z,18.90
2019-01-13T03:07:19.280Z,20.53
2019-01-13T03:10:00.983Z,18.47
2019-01-13T03:12:42.194Z,22.27
2019-01-13T03:15:23.441Z,23.00
2019-01-13T03:18:05.056Z,22.83
2019-01-13T03:20:46.238Z,22.40
2019-01-13T03:23:26.907Z,23.13
2019-01-13T03:26:07.388Z,22.97
2019-01-13T03:28:49.010Z,22.93
2019-01-13T03:31:30.009Z,22.57
2019-01-13T03:34:11.356Z,27.57
2019-01-13T03:36:51.895Z,24.67
2019-01-13T03:39:32.988Z,23.63
2019-01-13T03:42:13.664Z,20.90
2019-01-13T03:44:53.539Z,23.47
2019-01-13T03:47:34.769Z,22.60
2019-01-13T03:50:16.223Z,23.10
2019-01-13T03:52:56.869Z,25.83
2019-01-13T03:55:37.837Z,25.60
2019-01-13T03:58:19.292Z,22.40
2019-01-13T04:01:00.412Z,23.20
2019-01-13T04:03:40.068Z,25.43
2019-01-13T04:06:21.470Z,26.30
2019-01-13T04:09:03.296Z,25.20
2019-01-13T04:11:44.806Z,24.00
2019-01-13T04:14:26.484Z,24.07
2019-01-13T04:17:07.875Z,24.30
2019-01-13T04:19:48.849Z,24.37
2019-01-13T04:22:29.736Z,22.37
2019-01-13T04:25:11.233Z,25.07
2019-01-13T04:27:51.110Z,21.50
2019-01-13T04:30:32.388Z,26.83
2019-01-13T04:33:13.743Z,22.40
2019-01-13T04:35:54.640Z,24.57
2019-01-13T04:38:35.150Z,26.30
2019-01-13T04:41:16.846Z,25.67
2019-01-13T04:43:58.363Z,27.30
2019-01-13T04:46:39.958Z,27.93
2019-01-13T04:49:21.555Z,25.40
2019-01-13T04:52:02.148Z,24.87
2019-01-13T04:54:43.635Z,22.20
2019-01-13T04:57:23.356Z,24.47
2019-01-13T05:00:04.289Z,27.13
2019-01-13T05:02:46.019Z,25.00
2019-01-13T05:05:27.177Z,27.67
2019-01-13T05:08:08.064Z,27.30
2019-01-13T05:10:49.661Z,25.57
2019-01-13T05:13:30.695Z,24.87
2019-01-13T05:16:11.330Z,26.03
2019-01-13T05:18:52.276Z,22.73
2019-01-13T05:21:33.104Z,24.57
2019-01-13T05:24:14.318Z,23.17
2019-01-13T05:26:55.936Z,28.40
2019-01-13T05:29:37.492Z,22.63
2019-01-13T05:32:19.163Z,24.77
2019-01-13T05:35:00.498Z,27.67
2019-01-13T05:37:41.671Z,26.10
2019-01-13T05:40:22.579Z,25.27
2019-01-13T05:43:04.018Z,23.57
2019-01-13T05:45:45.921Z,24.10
2019-01-13T05:48:26.950Z,23.03
2019-01-13T05:51:08.046Z,29.00
2019-01-13T05:53:49.452Z,31.17
2019-01-13T05:56:31.359Z,28.70
2019-01-13T05:59:12.832Z,26.77
2019-01-13T06:01:54.197Z,27.33
2019-01-13T06:04:35.004Z,24.57
2019-01-13T06:07:16.506Z,25.90
2019-01-13T06:09:56.180Z,27.20
2019-01-13T06:12:36.652Z,25.77
2019-01-13T06:15:18.077Z,24.40
2019-01-13T06:17:59.185Z,30.00
2019-01-13T06:20:39.742Z,28.73
2019-01-13T06:23:20.453Z,29.90
2019-01-13T06:26:01.729Z,28.30
2019-01-13T06:28:43.140Z,29.10
2019-01-13T06:31:24.145Z,35.93
2019-01-13T06:34:04.847Z,34.33
2019-01-13T06:36:46.078Z,32.43
2019-01-13T06:39:27.345Z,33.80
2019-01-13T06:42:08.806Z,35.40
2019-01-13T06:44:49.835Z,36.77
2019-01-13T06:47:30.842Z,38.90
2019-01-13T06:50:12.335Z,41.13
2019-01-13T06:52:52.997Z,43.17
2019-01-13T06:55:33.619Z,48.77
2019-01-13T06:58:15.019Z,40.90
2019-01-13T07:00:56.581Z,40.07
2019-01-13T07:03:37.684Z,40.90
2019-01-13T07:06:18.303Z,37.37
2019-01-13T07:08:59.349Z,36.23
2019-01-13T07:11:40.638Z,44.20
2019-01-13T07:14:21.762Z,39.00
2019-01-13T07:17:02.798Z,45.60
2019-01-13T07:19:43.931Z,47.13
2019-01-13T07:22:25.703Z,50.27
2019-01-13T07:25:06.772Z,53.13
2019-01-13T07:27:47.838Z,68.80
2019-01-13T07:30:29.299Z,67.97
2019-01-13T07:33:10.968Z,60.07
2019-01-13T07:35:52.496Z,56.07
2019-01-13T07:38:33.867Z,49.57
2019-01-13T07:41:15.047Z,49.07
2019-01-13T07:43:56.163Z,49.93
2019-01-13T07:46:37.599Z,44.43
2019-01-13T07:49:18.955Z,38.97
2019-01-13T07:52:00.314Z,39.40
2019-01-13T07:54:41.671Z,38.00
2019-01-13T07:57:22.285Z,40.03
2019-01-13T08:00:03.692Z,43.77
2019-01-13T08:02:44.508Z,43.23
2019-01-13T08:05:25.954Z,39.00
2019-01-13T08:08:07.294Z,42.03
2019-01-13T08:10:46.970Z,43.70
2019-01-13T08:13:35.742Z,38.10
2019-01-13T08:16:17.194Z,42.87
2019-01-13T08:18:58.340Z,39.33
2019-01-13T08:21:40.199Z,50.00
2019-01-13T08:24:21.652Z,42.03
2019-01-13T08:27:01.653Z,40.90
2019-01-13T08:32:51.346Z,33.07
2019-01-13T08:35:32.915Z,46.13
2019-01-13T08:38:14.549Z,40.47
2019-01-13T08:40:55.187Z,42.80
2019-01-13T08:43:36.833Z,47.03
2019-01-13T08:46:16.376Z,49.10
2019-01-13T08:48:57.527Z,47.73
2019-01-13T08:51:38.621Z,49.17
2019-01-13T08:54:19.484Z,43.30
2019-01-13T08:57:00.760Z,59.40
2019-01-13T08:59:42.075Z,57.77
2019-01-13T09:02:23.620Z,54.43
2019-01-13T09:05:05.186Z,44.37
2019-01-13T09:07:46.651Z,48.50
2019-01-13T09:10:28.454Z,46.97
2019-01-13T09:13:11.001Z,44.93
2019-01-13T09:15:52.690Z,44.43
2019-01-13T09:18:33.088Z,47.23
2019-01-13T09:21:22.064Z,44.53
2019-01-13T09:24:03.470Z,39.93
2019-01-13T09:26:50.964Z,40.27
2019-01-13T09:29:26.043Z,33.57
2019-01-13T09:35:14.630Z,40.17
2019-01-13T09:37:56.073Z,41.10
2019-01-13T09:40:37.111Z,41.20
2019-01-13T09:43:18.020Z,39.47
2019-01-13T09:45:59.199Z,39.47
2019-01-13T09:48:40.498Z,38.27
2019-01-13T09:51:21.971Z,33.00
2019-01-13T09:54:03.060Z,40.20
2019-01-13T09:56:44.537Z,33.10
2019-01-13T09:59:25.787Z,39.23
2019-01-13T10:02:06.442Z,39.67
2019-01-13T10:04:47.073Z,37.87
2019-01-13T10:07:28.949Z,35.93
2019-01-13T10:10:09.921Z,33.27
2019-01-13T10:12:49.742Z,38.30
2019-01-13T10:18:39.088Z,38.77
2019-01-13T10:21:20.877Z,33.50
2019-01-13T10:24:01.811Z,39.00
2019-01-13T10:26:43.221Z,37.43
2019-01-13T10:29:24.173Z,37.23
2019-01-13T10:32:05.145Z,36.00
2019-01-13T10:34:46.277Z,36.23
2019-01-13T10:37:27.945Z,32.33
2019-01-13T10:40:08.746Z,34.93
2019-01-13T10:42:57.020Z,36.43
2019-01-13T10:45:38.240Z,35.33
2019-01-13T10:48:18.992Z,34.87
2019-01-13T10:51:00.226Z,34.53
2019-01-13T10:53:41.225Z,37.03
2019-01-13T10:56:22.584Z,39.07
2019-01-13T10:59:04.162Z,35.87
2019-01-13T11:01:45.506Z,39.10
2019-01-13T11:04:26.709Z,35.80
2019-01-13T11:07:07.817Z,36.93
2019-01-13T11:09:49.460Z,36.40
2019-01-13T11:12:31.259Z,40.87
2019-01-13T11:15:11.860Z,40.97
2019-01-13T11:17:52.828Z,44.13
2019-01-13T11:20:33.925Z,49.27
2019-01-13T11:23:14.913Z,38.80
2019-01-13T11:25:56.237Z,36.87
2019-01-13T11:28:37.901Z,44.33
2019-01-13T11:31:19.147Z,40.30
2019-01-13T11:33:59.859Z,39.77
2019-01-13T11:36:40.756Z,36.87
2019-01-13T11:39:22.161Z,37.50
2019-01-13T11:42:03.603Z,37.10
2019-01-13T11:44:45.303Z,40.97
2019-01-13T11:47:26.664Z,35.13
2019-01-13T11:50:07.781Z,37.10
2019-01-13T11:52:48.666Z,38.80
2019-01-13T11:55:29.511Z,39.70
2019-01-13T11:58:09.264Z,38.93
2019-01-13T12:00:50.176Z,36.73
2019-01-13T12:03:31.693Z,40.83
2019-01-13T12:06:11.132Z,37.23
2019-01-13T12:08:59.748Z,34.13
2019-01-13T12:11:40.919Z,36.57
2019-01-13T12:14:21.731Z,36.27
2019-01-13T12:17:01.456Z,28.37
2019-01-13T12:19:49.715Z,31.50
2019-01-13T12:22:29.336Z,32.37
2019-01-13T12:25:09.873Z,30.43
2019-01-13T12:27:51.068Z,35.33
2019-01-13T12:30:32.354Z,36.87
2019-01-13T12:33:11.775Z,36.30
2019-01-13T12:36:00.723Z,39.17
2019-01-13T12:38:42.278Z,38.10
2019-01-13T12:41:23.406Z,37.30
2019-01-13T12:44:03.074Z,38.90
2019-01-13T12:46:43.540Z,37.20
2019-01-13T12:49:24.955Z,34.23
2019-01-13T12:52:05.739Z,32.90
2019-01-13T12:54:47.221Z,29.27
2019-01-13T12:57:29.027Z,26.63
2019-01-13T13:00:10.465Z,28.40
2019-01-13T13:02:51.903Z,31.33
2019-01-13T13:05:33.228Z,29.50
2019-01-13T13:08:12.890Z,30.70
2019-01-13T13:11:01.232Z,29.20
2019-01-13T13:13:42.975Z,30.37
2019-01-13T13:16:25.062Z,26.90
2019-01-13T13:19:06.259Z,28.10
2019-01-13T13:21:45.878Z,27.17
2019-01-13T13:24:27.097Z,29.80
2019-01-13T13:27:08.509Z,27.77
2019-01-13T13:29:49.916Z,26.30
2019-01-13T13:32:31.155Z,31.17
2019-01-13T13:35:11.067Z,30.33
2019-01-13T13:37:59.880Z,28.43
2019-01-13T13:40:40.791Z,32.73
2019-01-13T13:43:22.192Z,30.23
2019-01-13T13:46:03.969Z,27.03
2019-01-13T13:48:45.146Z,28.07
2019-01-13T13:51:26.621Z,29.57
2019-01-13T13:54:08.516Z,24.90
2019-01-13T13:56:49.670Z,23.17
2019-01-13T13:59:30.400Z,24.97
2019-01-13T14:02:11.932Z,24.53
2019-01-13T14:04:53.372Z,30.20
2019-01-13T14:07:35.018Z,26.60
2019-01-13T14:10:16.218Z,36.03
2019-01-13T14:12:57.198Z,24.90
2019-01-13T14:15:38.453Z,27.93
2019-01-13T14:18:20.050Z,26.57
2019-01-13T14:21:00.729Z,23.40
2019-01-13T14:23:41.554Z,27.73
2019-01-13T14:26:21.603Z,30.73
2019-01-13T14:29:02.778Z,26.87
2019-01-13T14:31:44.164Z,24.17
2019-01-13T14:34:25.891Z,27.67
2019-01-13T14:37:06.832Z,52.07
2019-01-13T14:39:49.021Z,64.77
2019-01-13T14:42:29.981Z,58.57
2019-01-13T14:45:11.591Z,35.80
2019-01-13T14:47:52.706Z,29.40
2019-01-13T14:50:34.009Z,28.43
2019-01-13T14:53:15.017Z,36.73
2019-01-13T14:55:56.322Z,47.87
2019-01-13T14:58:37.970Z,52.20
2019-01-13T15:01:18.016Z,33.80
2019-01-13T15:04:00.124Z,33.43
2019-01-13T15:06:40.629Z,24.43
2019-01-13T15:09:30.179Z,25.97
2019-01-13T15:12:11.205Z,22.03
2019-01-13T15:14:50.603Z,21.03
2019-01-13T15:17:39.216Z,23.83
2019-01-13T15:20:21.060Z,23.47
2019-01-13T15:23:02.536Z,24.43
2019-01-13T15:25:43.435Z,22.37
2019-01-13T15:28:22.869Z,25.07
2019-01-13T15:31:04.641Z,20.60
2019-01-13T15:33:46.072Z,18.60
2019-01-13T15:36:27.822Z,21.83
2019-01-13T15:39:09.505Z,21.27
2019-01-13T15:41:50.803Z,18.13
2019-01-13T15:44:32.387Z,20.20
2019-01-13T15:47:14.219Z,22.80
2019-01-13T15:49:55.697Z,21.63
2019-01-13T15:52:36.892Z,24.10
2019-01-13T15:55:18.700Z,23.93
2019-01-13T15:57:59.796Z,25.67
2019-01-13T16:00:40.606Z,27.47
2019-01-13T16:03:22.030Z,26.00
2019-01-13T16:06:03.376Z,27.70
2019-01-13T16:08:44.683Z,27.07
2019-01-13T16:11:26.325Z,27.50
2019-01-13T16:14:07.872Z,27.43
2019-01-13T16:16:49.117Z,27.40
2019-01-13T16:19:30.980Z,26.50
2019-01-13T16:22:12.001Z,24.60
2019-01-13T16:24:53.223Z,26.90
2019-01-13T16:27:34.014Z,37.37
2019-01-13T16:30:14.790Z,42.33
2019-01-13T16:32:56.390Z,35.27
2019-01-13T16:35:38.262Z,28.70
2019-01-13T16:38:19.853Z,28.97
2019-01-13T16:41:01.075Z,30.00
2019-01-13T16:43:42.442Z,29.23
2019-01-13T16:46:24.380Z,22.60
2019-01-13T16:49:06.270Z,22.50
2019-01-13T16:51:47.354Z,22.67
2019-01-13T16:54:28.902Z,24.40
2019-01-13T16:57:09.666Z,26.30
2019-01-13T16:59:51.067Z,27.13
2019-01-13T17:02:33.157Z,28.10
2019-01-13T17:05:14.257Z,27.33
2019-01-13T17:07:55.585Z,24.47
2019-01-13T17:10:36.205Z,28.53
2019-01-13T17:13:16.808Z,26.83
2019-01-13T17:15:58.058Z,28.20
2019-01-13T17:18:39.165Z,29.97
2019-01-13T17:21:20.068Z,29.87
2019-01-13T17:24:01.713Z,34.47
2019-01-13T17:26:42.390Z,28.33
2019-01-13T17:29:24.109Z,28.93
2019-01-13T17:32:05.650Z,29.03
2019-01-13T17:34:46.831Z,26.27
2019-01-13T17:37:26.707Z,23.03
2019-01-13T17:40:15.988Z,24.83
2019-01-13T17:42:57.197Z,21.23
2019-01-13T17:45:38.539Z,21.67
2019-01-13T17:48:19.210Z,27.13
2019-01-13T17:51:00.079Z,20.27
2019-01-13T17:53:41.538Z,20.83
2019-01-13T17:56:23.023Z,36.00
2019-01-13T17:59:04.670Z,49.23
2019-01-13T18:01:46.462Z,22.17
2019-01-13T18:04:27.948Z,28.43
2019-01-13T18:07:08.809Z,42.63
2019-01-13T18:09:50.005Z,39.70
2019-01-13T18:12:31.607Z,70.00
2019-01-13T18:15:12.734Z,51.47
2019-01-13T18:17:54.009Z,57.90
2019-01-13T18:20:35.794Z,49.37
2019-01-13T18:23:17.559Z,60.67
2019-01-13T18:25:59.646Z,57.63
2019-01-13T18:28:41.221Z,36.47
2019-01-13T18:31:23.153Z,39.73
2019-01-13T18:34:04.876Z,45.63
2019-01-13T18:36:45.746Z,30.03
2019-01-13T18:39:27.205Z,26.27
2019-01-13T18:42:08.320Z,25.40
2019-01-13T18:44:49.803Z,23.83
2019-01-13T18:47:31.535Z,25.23
2019-01-13T18:50:12.981Z,19.63
2019-01-13T18:52:54.062Z,19.13
2019-01-13T18:55:35.691Z,19.17
2019-01-13T18:58:17.545Z,22.30
2019-01-13T19:00:59.252Z,22.73
2019-01-13T19:03:40.623Z,20.07
2019-01-13T19:06:21.802Z,22.13
2019-01-13T19:09:01.871Z,22.03
2019-01-13T19:12:02.530Z,22.80
2019-01-13T19:14:44.215Z,24.27
2019-01-13T19:17:25.807Z,24.13
2019-01-13T19:20:07.223Z,21.10
2019-01-13T19:22:49.030Z,22.13
2019-01-13T19:25:29.709Z,17.07
2019-01-13T19:28:11.037Z,19.80
2019-01-13T19:30:50.559Z,20.10
2019-01-13T19:33:39.493Z,18.50
2019-01-13T19:36:20.192Z,22.70
2019-01-13T19:39:01.489Z,21.77
2019-01-13T19:41:43.028Z,20.63
2019-01-13T19:44:24.789Z,23.20
2019-01-13T19:47:05.946Z,20.20
2019-01-13T19:49:46.755Z,24.30
2019-01-13T19:52:28.286Z,22.30
2019-01-13T19:55:09.858Z,20.77
2019-01-13T19:57:51.815Z,24.17
2019-01-13T20:00:33.419Z,24.93
2019-01-13T20:03:15.018Z,23.97
2019-01-13T20:05:56.843Z,20.57
2019-01-13T20:08:37.909Z,18.43
2019-01-13T20:11:18.976Z,22.67
2019-01-13T20:14:00.587Z,21.40
2019-01-13T20:16:43.236Z,17.03
2019-01-13T20:19:24.730Z,19.43
2019-01-13T20:22:05.452Z,17.70
2019-01-13T20:24:47.363Z,21.17
2019-01-13T20:27:28.725Z,20.57
2019-01-13T20:30:10.185Z,21.60
2019-01-13T20:32:51.980Z,18.90
2019-01-13T20:35:33.904Z,22.50
2019-01-13T20:38:15.878Z,21.40
2019-01-13T20:40:56.805Z,22.10
2019-01-13T20:43:37.970Z,28.97
2019-01-13T20:46:18.964Z,20.53
2019-01-13T20:48:59.645Z,24.10
2019-01-13T20:51:40.957Z,26.80
2019-01-13T20:54:22.258Z,24.87
2019-01-13T20:57:03.993Z,21.03
2019-01-13T20:59:45.025Z,17.53
2019-01-13T21:02:25.875Z,17.43
2019-01-13T21:05:07.533Z,19.17
2019-01-13T21:07:49.251Z,15.83
2019-01-13T21:10:30.949Z,15.63
2019-01-13T21:13:12.741Z,14.70
2019-01-13T21:15:54.184Z,17.10
2019-01-13T21:18:35.853Z,16.53
2019-01-13T21:21:17.728Z,17.90
2019-01-13T21:23:59.041Z,17.73
2019-01-13T21:26:40.587Z,15.93
2019-01-13T21:29:22.676Z,19.00
2019-01-13T21:32:03.687Z,17.23
2019-01-13T21:34:45.147Z,18.83
2019-01-13T21:37:26.766Z,18.10
2019-01-13T21:40:08.901Z,26.77
2019-01-13T21:42:50.304Z,26.00
2019-01-13T21:45:31.537Z,27.07
2019-01-13T21:48:13.868Z,19.47
2019-01-13T21:51:03.683Z,18.13
2019-01-13T21:53:45.265Z,21.53
2019-01-13T21:56:26.367Z,18.20
2019-01-13T21:59:06.127Z,25.67
2019-01-13T22:04:54.217Z,16.20
2019-01-13T22:07:35.804Z,20.97
2019-01-13T22:10:17.421Z,18.67
2019-01-13T22:12:58.824Z,14.80
2019-01-13T22:15:39.899Z,16.03
2019-01-13T22:18:21.533Z,12.57
2019-01-13T22:21:03.078Z,15.73
2019-01-13T22:23:44.931Z,14.87
2019-01-13T22:26:26.419Z,11.73
2019-01-13T22:29:07.832Z,13.00
2019-01-13T22:31:48.986Z,12.17
2019-01-13T22:34:30.370Z,13.70
2019-01-13T22:37:11.661Z,13.90
2019-01-13T22:39:52.284Z,13.97
2019-01-13T22:42:32.334Z,13.20
2019-01-13T22:45:13.899Z,11.87
2019-01-13T22:47:54.945Z,12.93
2019-01-13T22:50:34.672Z,13.13
2019-01-13T22:53:15.949Z,11.80
2019-01-13T22:55:56.642Z,11.87
2019-01-13T22:58:37.299Z,14.00
2019-01-13T23:01:25.019Z,11.57
2019-01-13T23:04:06.403Z,11.77
2019-01-13T23:06:47.632Z,11.23
2019-01-13T23:09:28.812Z,12.10
2019-01-13T23:12:08.464Z,12.17
2019-01-13T23:14:57.150Z,13.60
2019-01-13T23:17:38.464Z,12.13
2019-01-13T23:20:20.125Z,12.43
2019-01-13T23:23:01.521Z,13.70
2019-01-13T23:25:42.476Z,14.10
2019-01-13T23:28:23.253Z,14.87
2019-01-13T23:31:02.609Z,17.03
2019-01-13T23:33:43.736Z,14.27
2019-01-13T23:36:24.596Z,18.03
2019-01-13T23:39:07.233Z,14.90
2019-01-13T23:41:48.449Z,17.30
2019-01-13T23:44:29.770Z,16.60
2019-01-13T23:47:11.179Z,14.93
2019-01-13T23:49:51.886Z,14.87
2019-01-13T23:52:32.834Z,14.17
2019-01-13T23:55:12.386Z,12.60
2019-01-13T23:57:51.973Z,14.50
